Latest Weather Observations for King Island Airport

IDT60801

Issued at 11:02 am EDT Thursday 21 November 2019 (issued every 10 minutes, with the page automatically refreshed every 10 minutes)

About weather observations | Map of weather stations | Latest weather observations for TAS | Other Formats
Station Details ID: 098017 Name: KING ISLAND AIRPORT Lat: -39.88 Lon: 143.89 Height: 35.42 m
Data from the previous 72 hours. | See also: Recent months at King Island Airport
Date/Time
EDT
Temp
°C
App
Temp
°C
Dew
Point
°C
Rel
Hum
%
Delta-T
°C
Wind Press
QNH
hPa
Press
MSL
hPa
Rain since
9am
mm
Dir  Spd
km/h
Gust
km/h
Spd
kts
Gust
kts
21/11:00am 23.2 19.1 11.6 48 6.6 NNW 24 30 13 16 997.9 997.8 0.0
21/10:30am 24.2 20.3 10.8 43 7.5 NNW 22 32 12 17 997.3 997.2 0.0
21/10:00am 22.8 19.6 11.8 50 6.2 NNW 20 26 11 14 997.2 997.1 0.0
21/09:30am 25.3 21.2 11.5 42 7.8 N 24 32 13 17 997.7 997.6 0.0
21/09:00am 20.8 18.1 11.7 56 5.1 NNW 17 20 9 11 998.0 997.9 0.0
21/08:30am 22.0 18.5 10.8 49 6.2 NW 20 24 11 13 998.3 998.2 0.0
21/08:00am 22.3 19.6 11.7 51 6.0 N 17 24 9 13 998.1 998.0 0.0
21/07:30am 19.7 16.2 10.9 57 4.8 NNW 20 28 11 15 998.3 998.2 0.0
21/07:00am 21.6 14.4 9.2 45 6.7 NNW 37 57 20 31 997.6 997.5 0.0
21/06:41am 24.1 15.8 7.7 35 8.6 N 41 59 22 32 997.0 996.9 0.0
21/06:30am 23.9 16.0 7.9 36 8.5 N 39 56 21 30 997.1 997.0 0.0
21/06:00am 22.6 16.2 8.7 41 7.5 N 32 43 17 23 997.3 997.2 0.0
21/05:45am 24.1 16.9 7.7 35 8.6 N 35 54 19 29 997.4 997.3 0.0
21/05:30am 24.7 15.7 7.4 33 9.1 N 44 61 24 33 997.1 997.0 0.0
21/05:08am 24.5 15.6 7.6 34 8.9 N 44 63 24 34 996.9 996.8 0.0
21/05:00am 24.6 15.3 7.7 34 9.0 N 46 57 25 31 997.0 996.9 0.0
21/04:30am 25.3 16.5 7.4 32 9.5 N 43 57 23 31 996.9 996.8 0.0
21/04:00am 25.3 16.3 7.4 32 9.5 N 44 57 24 31 997.0 996.9 0.0
21/03:42am 25.5 16.2 7.6 32 9.5 N 46 65 25 35 997.1 997.0 0.0
21/03:30am 24.9 16.0 7.5 33 9.2 N 44 59 24 32 997.4 997.3 0.0
21/03:00am 23.9 15.8 8.7 38 8.2 N 41 59 22 32 997.9 997.8 0.0
21/02:47am 24.1 17.2 8.9 38 8.2 NNE 35 56 19 30 997.9 997.8 0.0
21/02:30am 20.7 15.6 10.5 52 5.6 NNE 28 41 15 22 998.5 998.4 0.0
21/02:00am 18.5 15.1 11.1 62 4.0 ENE 20 28 11 15 999.1 999.0 0.0
21/01:30am 16.2 13.2 12.4 78 2.1 E 20 22 11 12 999.9 999.8 0.0
21/01:00am 16.4 13.4 12.6 78 2.1 ESE 20 26 11 14 1000.9 1000.8 0.0
21/12:30am 16.7 13.7 12.5 76 2.3 E 20 26 11 14 1001.2 1001.1 0.0
21/12:00am 16.4 12.8 12.9 80 2.0 E 24 32 13 17 1001.7 1001.6 0.0
 
Date/Time
EDT
Temp
°C
App
Temp
°C
Dew
Point
°C
Rel
Hum
%
Delta-T
°C
Wind Press
QNH
hPa
Press
MSL
hPa
Rain since
9am
mm
Dir  Spd
km/h
Gust
km/h
Spd
kts
Gust
kts
20/11:30pm 15.9 12.3 13.0 83 1.6 E 24 35 13 19 1002.5 1002.4 0.0
20/11:00pm 15.7 11.7 13.0 84 1.5 E 26 35 14 19 1003.0 1003.0 0.0
20/10:30pm 15.2 11.2 12.9 86 1.3 E 26 35 14 19 1003.7 1003.7 0.0
20/10:00pm 14.6 10.1 12.6 88 1.1 E 28 35 15 19 1004.2 1004.2 0.0
20/09:30pm 14.6 10.5 12.6 88 1.1 E 26 35 14 19 1004.3 1004.3 0.0
20/09:00pm 14.8 10.7 12.8 88 1.1 E 26 33 14 18 1004.7 1004.7 0.0
20/08:30pm 15.4 11.0 12.9 85 1.4 E 28 37 15 20 1005.0 1005.0 0.0
20/08:00pm 15.9 10.8 13.2 84 1.5 E 32 46 17 25 1005.1 1005.1 0.0
20/07:30pm 16.4 11.2 13.3 82 1.7 ENE 33 48 18 26 1005.4 1005.4 0.0
20/07:00pm 16.5 11.2 13.0 80 2.0 ENE 33 43 18 23 1005.6 1005.6 0.0
20/06:30pm 17.3 12.0 13.2 77 2.3 ENE 33 44 18 24 1005.7 1005.7 0.0
20/06:00pm 17.5 12.2 12.6 73 2.7 ENE 32 44 17 24 1006.2 1006.2 0.0
20/05:30pm 18.7 13.4 12.5 67 3.5 ENE 32 46 17 25 1006.6 1006.6 0.0
20/05:00pm 19.0 14.2 11.6 62 4.1 NE 28 39 15 21 1007.2 1007.2 0.0
20/04:30pm 19.7 14.1 10.1 54 5.2 NE 30 43 16 23 1007.8 1007.8 0.0
20/04:00pm 19.1 13.0 10.4 57 4.7 ENE 33 43 18 23 1007.8 1007.8 0.0
20/03:30pm 19.5 13.8 11.3 59 4.5 ENE 32 46 17 25 1008.3 1008.3 0.0
20/03:00pm 19.9 13.8 10.6 55 5.1 NE 33 46 18 25 1009.1 1009.1 0.0
20/02:30pm 19.2 13.4 11.5 61 4.2 ENE 33 44 18 24 1009.6 1009.6 0.0
20/02:00pm 18.5 12.5 10.1 58 4.5 ENE 32 43 17 23 1010.8 1010.8 0.0
20/01:30pm 18.4 12.3 9.7 57 4.6 ENE 32 44 17 24 1011.4 1011.4 0.0
20/01:00pm 19.5 14.5 10.8 57 4.7 ENE 28 39 15 21 1011.4 1011.4 0.0
20/12:30pm 18.9 13.7 10.2 57 4.7 NE 28 41 15 22 1011.6 1011.6 0.0
20/12:00pm 17.9 13.0 11.2 65 3.6 NE 28 39 15 21 1012.5 1012.5 0.0
20/11:30am 16.2 10.4 9.6 65 3.4 NE 30 41 16 22 1013.1 1013.1 0.0
20/11:00am 14.5 9.1 9.5 72 2.6 ENE 28 35 15 19 1013.0 1013.0 0.0
20/10:30am 14.4 9.8 9.6 73 2.5 ENE 24 30 13 16 1014.0 1014.0 0.0
20/10:00am 13.6 10.7 9.6 77 2.0 NE 15 17 8 9 1015.4 1015.4 0.0
20/09:30am 13.3 9.3 9.2 76 2.1 NE 20 28 11 15 1015.0 1015.0 0.0
20/09:00am 13.2 8.8 9.1 76 2.1 NE 22 30 12 16 1014.4 1014.4 0.0
20/08:30am 11.6 7.2 8.8 83 1.4 ENE 22 30 12 16 1014.1 1014.1 0.0
20/08:00am 11.0 7.7 9.4 90 0.8 ENE 17 24 9 13 1013.5 1013.5 0.0
20/07:30am 9.7 7.5 9.4 98 0.1 ENE 11 17 6 9 1014.5 1014.5 0.0
20/07:00am 7.4 4.7 7.3 99 0.0 ESE 11 13 6 7 1014.9 1014.9 0.0
20/06:30am 5.1 2.3 5.0 99 0.0 ESE 9 11 5 6 1014.7 1014.7 0.0
20/06:00am 3.2 -0.8 3.1 99 0.0 E 13 15 7 8 1013.5 1013.5 0.0
20/05:30am 4.0 1.0 3.9 99 0.0 ESE 9 11 5 6 1014.0 1014.0 0.0
20/05:00am 3.6 0.5 3.5 99 0.0 ESE 9 11 5 6 1013.8 1013.8 0.0
20/04:30am 4.3 1.9 4.2 99 0.0 ESE 6 9 3 5 1014.3 1014.3 0.0
20/04:00am 2.7 -1.0 2.6 99 0.0 ESE 11 13 6 7 1013.9 1013.9 0.0
20/03:30am 3.2 0.4 3.1 99 0.0 ESE 7 7 4 4 1014.5 1014.5 0.0
20/03:00am 3.4 0.2 3.3 99 0.0 E 9 11 5 6 1014.6 1014.6 0.0
20/02:30am 4.5 2.9 4.4 99 0.0 SE 2 9 1 5 1015.7 1015.7 0.0
20/02:00am 3.8 0.7 3.7 99 0.0 ESE 9 9 5 5 1015.4 1015.4 0.0
20/01:30am 3.7 2.2 3.1 96 0.2 CALM 0 0 0 0 1015.9 1015.9 0.0
20/01:00am 4.5 2.0 3.6 94 0.4 ESE 6 7 3 4 1016.2 1016.2 0.0
20/12:30am 5.3 2.7 4.4 94 0.4 ESE 7 9 4 5 1016.8 1016.8 0.0
20/12:00am 6.0 4.8 4.8 92 0.5 CALM 0 7 0 4 1016.9 1016.9 0.0
 
Date/Time
EDT
Temp
°C
App
Temp
°C
Dew
Point
°C
Rel
Hum
%
Delta-T
°C
Wind Press
QNH
hPa
Press
MSL
hPa
Rain since
9am
mm
Dir  Spd
km/h
Gust
km/h
Spd
kts
Gust
kts
19/11:30pm 6.7 5.7 5.5 92 0.5 CALM 0 0 0 0 1017.1 1017.1 0.0
19/11:00pm 6.6 4.4 5.1 90 0.7 ENE 6 6 3 3 1016.7 1016.7 0.0
19/10:30pm 8.0 5.5 4.9 81 1.4 S 7 11 4 6 1016.9 1016.9 0.0
19/10:00pm 8.2 5.4 5.3 82 1.3 SE 9 11 5 6 1016.6 1016.6 0.0
19/09:30pm 8.9 6.6 5.8 81 1.4 SSE 7 11 4 6 1016.6 1016.6 0.0
19/09:00pm 8.9 6.6 5.8 81 1.4 S 7 9 4 5 1016.7 1016.7 0.0
19/08:30pm 9.6 6.9 5.6 76 1.8 S 9 13 5 7 1016.5 1016.5 0.0
19/08:00pm 10.5 7.4 5.7 72 2.2 SSW 11 19 6 10 1016.4 1016.4 0.0
19/07:30pm 11.1 7.6 5.6 69 2.5 SSW 13 19 7 10 1016.4 1016.4 0.0
19/07:00pm 12.3 8.4 5.5 63 3.2 S 15 22 8 12 1016.2 1016.2 0.0
19/06:30pm 12.8 8.3 5.9 63 3.3 SSW 19 24 10 13 1015.9 1015.9 0.0
19/06:00pm 13.1 8.5 5.8 61 3.4 SSW 19 28 10 15 1015.7 1015.7 0.0
19/05:30pm 13.2 8.6 6.3 63 3.3 SSW 20 26 11 14 1015.9 1015.9 0.0
19/05:00pm 13.8 9.4 6.7 62 3.4 SSW 19 28 10 15 1015.5 1015.5 0.0
19/04:30pm 13.7 9.4 6.8 63 3.3 SSW 19 28 10 15 1015.4 1015.4 0.0
19/04:00pm 13.5 9.1 6.4 62 3.4 SW 19 26 10 14 1015.5 1015.5 0.0
19/03:30pm 14.5 10.0 7.1 61 3.6 SW 20 30 11 16 1015.7 1015.7 0.0
19/03:00pm 14.3 9.7 6.6 60 3.7 WSW 20 32 11 17 1015.7 1015.7 0.0
19/02:30pm 14.7 10.5 7.5 62 3.6 WSW 19 26 10 14 1015.6 1015.6 0.0
19/02:00pm 14.6 9.5 7.6 63 3.5 SW 24 32 13 17 1015.7 1015.7 0.0
19/01:30pm 14.2 9.8 7.5 64 3.3 SW 20 28 11 15 1015.5 1015.5 0.0
19/01:00pm 14.7 10.5 8.4 66 3.2 SW 20 28 11 15 1015.3 1015.3 0.0
19/12:30pm 13.9 9.5 7.4 65 3.2 SW 20 33 11 18 1015.1 1015.1 0.0
19/12:00pm 14.1 10.1 8.1 67 3.0 SSW 19 26 10 14 1015.4 1015.4 0.0
19/11:30am 13.1 8.7 7.5 69 2.7 SSW 20 28 11 15 1015.4 1015.4 0.0
19/11:00am 12.0 7.3 9.4 84 1.3 SSW 24 32 13 17 1015.1 1015.1 0.0
19/10:30am 12.3 8.1 8.2 76 2.0 SSW 20 28 11 15 1014.7 1014.7 0.0
19/10:00am 12.5 8.2 7.8 73 2.3 SSW 20 28 11 15 1014.6 1014.6 0.0
19/09:30am 12.1 7.3 7.2 72 2.4 SSW 22 32 12 17 1014.5 1014.5 0.0
19/09:00am 11.8 7.1 7.9 77 1.9 SSW 22 28 12 15 1014.3 1014.3 0.6
19/08:30am 12.0 7.4 8.3 78 1.8 SSW 22 30 12 16 1013.8 1013.8 0.6
19/08:00am 11.6 7.7 8.8 83 1.4 SSW 19 26 10 14 1013.3 1013.3 0.6
19/07:30am 11.4 7.7 9.5 88 1.0 SSW 19 24 10 13 1012.9 1012.9 0.6
19/07:25am 11.4 7.6 9.8 90 0.8 SSW 20 26 11 14 1012.9 1012.9 0.6
19/07:00am 11.1 7.8 10.8 98 0.2 SSW 19 26 10 14 1012.6 1012.6 0.6
19/06:54am 10.9 7.3 10.7 99 0.1 SSW 20 28 11 15 1012.5 1012.5 0.6
19/06:30am 11.1 7.8 10.9 99 0.1 SW 19 32 10 17 1012.3 1012.3 0.6
19/06:29am 11.1 7.8 10.9 99 0.1 SW 19 32 10 17 1012.3 1012.3 0.6
19/06:23am 11.2 8.3 11.0 99 0.1 SW 17 22 9 12 1012.2 1012.2 0.2
19/06:03am 11.4 8.5 11.1 98 0.2 SW 17 24 9 13 1011.9 1011.9 0.2
19/06:00am 11.3 8.8 11.0 98 0.2 SW 15 19 8 10 1011.9 1011.9 0.2
19/05:42am 10.8 8.5 10.5 98 0.2 SW 13 17 7 9 1011.7 1011.7 0.2
19/05:30am 10.7 8.3 10.2 97 0.3 SW 13 17 7 9 1011.5 1011.5 0.2
19/05:00am 10.9 8.7 10.7 99 0.1 SW 13 17 7 9 1011.3 1011.3 0.2
19/04:53am 10.8 8.2 10.6 99 0.1 SW 15 19 8 10 1011.4 1011.4 0.2
19/04:30am 11.5 9.1 11.3 99 0.1 SW 15 17 8 9 1011.1 1011.1 0.2
19/04:00am 11.5 8.7 11.3 99 0.1 SW 17 22 9 12 1011.0 1011.0 0.2
19/03:42am 11.7 8.9 11.5 99 0.1 SW 17 22 9 12 1010.9 1010.9 0.2
19/03:30am 11.8 9.5 11.6 99 0.1 SW 15 20 8 11 1010.9 1010.9 0.2
19/03:11am 11.8 9.8 11.6 99 0.1 WSW 13 17 7 9 1010.9 1010.9 0.2
19/03:09am 11.7 9.7 11.5 99 0.1 WSW 13 17 7 9 1010.9 1010.9 0.2
19/03:00am 11.8 9.5 11.6 99 0.1 WSW 15 22 8 12 1010.9 1010.9 0.2
19/02:30am 12.2 10.0 12.0 99 0.1 WSW 15 20 8 11 1011.1 1011.1 0.0
19/02:11am 12.4 10.1 11.6 95 0.4 WSW 15 20 8 11 1011.1 1011.1 0.0
19/02:09am 12.4 9.6 11.5 94 0.5 WSW 17 20 9 11 1011.2 1011.2 0.0
19/02:00am 12.5 9.6 11.1 91 0.7 W 17 20 9 11 1011.2 1011.2 0.0
19/01:30am 12.4 9.4 10.6 89 0.9 W 17 22 9 12 1011.2 1011.2 0.0
19/01:00am 12.4 9.1 11.0 91 0.7 WSW 19 26 10 14 1011.3 1011.3 0.0
19/12:57am 12.3 9.0 10.9 91 0.7 WSW 19 26 10 14 1011.3 1011.3 0.0
19/12:30am 12.3 8.9 10.7 90 0.8 WSW 19 22 10 12 1011.5 1011.5 0.0
19/12:08am 11.9 8.9 10.5 91 0.7 WSW 17 24 9 13 1011.3 1011.3 0.0
19/12:00am 11.6 8.5 10.2 91 0.7 WSW 17 22 9 12 1011.3 1011.3 0.0
 
Date/Time
EDT
Temp
°C
App
Temp
°C
Dew
Point
°C
Rel
Hum
%
Delta-T
°C
Wind Press
QNH
hPa
Press
MSL
hPa
Rain since
9am
mm
Dir  Spd
km/h
Gust
km/h
Spd
kts
Gust
kts
18/11:30pm 11.5 8.7 10.1 91 0.7 WSW 15 20 8 11 1011.3 1011.3 0.0
18/11:00pm 11.6 8.9 10.2 91 0.7 WSW 15 17 8 9 1011.2 1011.2 0.0
18/10:30pm 11.7 8.6 10.3 91 0.7 WSW 17 20 9 11 1011.2 1011.2 0.0
18/10:00pm 11.9 8.4 10.1 89 0.9 WSW 19 24 10 13 1011.3 1011.3 0.0
18/09:30pm 12.0 8.3 10.1 88 1.0 WSW 20 30 11 16 1011.5 1011.5 0.0
18/09:00pm 12.1 8.0 10.2 88 1.0 WSW 22 30 12 16 1011.6 1011.6 0.0
18/08:43pm 12.2 8.2 10.4 89 0.9 WSW 22 30 12 16 1011.7 1011.7 0.0
18/08:30pm 12.5 7.7 10.4 87 1.1 WSW 26 35 14 19 1011.7 1011.7 0.0
18/08:00pm 12.7 8.4 10.8 88 1.0 W 24 33 13 18 1011.7 1011.7 0.0
18/07:30pm 13.1 8.8 10.8 86 1.2 W 24 32 13 17 1011.8 1011.8 0.0
18/07:00pm 13.4 8.4 10.8 84 1.4 W 28 39 15 21 1011.7 1011.7 0.0
18/06:30pm 13.7 8.6 10.7 82 1.6 W 28 41 15 22 1011.6 1011.6 0.0
18/06:00pm 13.9 8.1 10.9 82 1.6 W 32 43 17 23 1011.7 1011.7 0.0
18/05:30pm 14.0 7.8 10.0 77 2.1 W 33 43 18 23 1011.7 1011.7 0.0
18/05:00pm 14.3 8.3 10.1 76 2.2 W 32 43 17 23 1011.7 1011.7 0.0
18/04:30pm 14.6 7.9 9.8 73 2.5 WNW 35 46 19 25 1012.0 1012.0 0.0
18/04:00pm 14.3 8.1 9.9 75 2.3 WNW 33 46 18 25 1012.2 1012.2 0.0
18/03:30pm 14.1 7.4 9.5 74 2.4 WNW 35 46 19 25 1012.2 1012.2 0.0
18/03:00pm 14.5 8.4 9.9 74 2.4 WNW 32 46 17 25 1012.5 1012.5 0.0
18/02:30pm 15.0 8.5 10.2 73 2.5 WNW 35 50 19 27 1012.7 1012.7 0.0
18/02:00pm 14.7 6.8 9.3 70 2.8 WNW 41 54 22 29 1012.9 1012.9 0.0
18/01:30pm 15.1 8.5 10.1 72 2.6 WNW 35 46 19 25 1013.2 1013.2 0.0
18/01:00pm 14.7 8.3 9.5 71 2.7 WNW 33 44 18 24 1013.3 1013.3 0.0
18/12:30pm 14.8 8.2 10.0 73 2.5 WNW 35 44 19 24 1013.6 1013.6 0.0
18/12:00pm 14.5 8.1 9.5 72 2.6 WNW 33 44 18 24 1013.6 1013.6 0.0
18/11:30am 14.2 7.9 9.8 75 2.3 WNW 33 43 18 23 1014.1 1014.1 0.0

Other formats

Comma delimited format used in spreadsheet applications
http://www.bom.gov.au/fwo/IDT60801/IDT60801.94850.axf

JavaScript Object Notation format (JSON) in row-major order
http://www.bom.gov.au/fwo/IDT60801/IDT60801.94850.json

Data quality

Most of these data are generated automatically and are frequently updated. Quality checks on data are not normally performed. It is possible for incorrect values to appear. Refer to information at About Latest Weather Observations and please check the disclaimer before using these data.